sensor_id;sensor_type;location;lat;lon;timestamp;P1;durP1;ratioP1;P2;durP2;ratioP2
48951;SDS011;34758;42.148;24.744;2023-05-15T00:00:33;11.43;;;7.90;;
48951;SDS011;34758;42.148;24.744;2023-05-15T00:03:01;12.63;;;8.60;;
48951;SDS011;34758;42.148;24.744;2023-05-15T00:05:29;10.75;;;7.82;;
48951;SDS011;34758;42.148;24.744;2023-05-15T00:07:57;9.60;;;7.70;;
48951;SDS011;34758;42.148;24.744;2023-05-15T00:10:24;11.25;;;7.53;;
48951;SDS011;34758;42.148;24.744;2023-05-15T00:12:52;9.40;;;8.15;;
48951;SDS011;34758;42.148;24.744;2023-05-15T00:15:19;9.90;;;7.50;;
48951;SDS011;34758;42.148;24.744;2023-05-15T00:17:46;9.98;;;8.00;;
48951;SDS011;34758;42.148;24.744;2023-05-15T00:20:13;13.07;;;8.65;;
48951;SDS011;34758;42.148;24.744;2023-05-15T00:22:40;10.55;;;7.80;;
48951;SDS011;34758;42.148;24.744;2023-05-15T00:25:08;8.80;;;7.82;;
48951;SDS011;34758;42.148;24.744;2023-05-15T00:27:35;12.40;;;7.90;;
48951;SDS011;34758;42.148;24.744;2023-05-15T00:30:04;12.60;;;8.65;;
48951;SDS011;34758;42.148;24.744;2023-05-15T00:32:33;10.82;;;7.25;;
48951;SDS011;34758;42.148;24.744;2023-05-15T00:35:00;11.30;;;7.50;;
48951;SDS011;34758;42.148;24.744;2023-05-15T00:37:27;12.32;;;7.70;;
48951;SDS011;34758;42.148;24.744;2023-05-15T00:39:54;10.75;;;8.40;;
48951;SDS011;34758;42.148;24.744;2023-05-15T00:42:21;10.15;;;8.10;;
48951;SDS011;34758;42.148;24.744;2023-05-15T00:44:47;15.88;;;8.65;;
48951;SDS011;34758;42.148;24.744;2023-05-15T00:47:17;13.32;;;8.43;;
48951;SDS011;34758;42.148;24.744;2023-05-15T00:49:46;14.13;;;8.02;;
48951;SDS011;34758;42.148;24.744;2023-05-15T00:52:13;13.48;;;8.13;;
48951;SDS011;34758;42.148;24.744;2023-05-15T00:54:40;11.57;;;8.02;;
48951;SDS011;34758;42.148;24.744;2023-05-15T00:57:07;14.05;;;8.38;;
48951;SDS011;34758;42.148;24.744;2023-05-15T00:59:35;12.43;;;8.98;;
48951;SDS011;34758;42.148;24.744;2023-05-15T01:02:04;11.73;;;8.35;;
48951;SDS011;34758;42.148;24.744;2023-05-15T01:04:35;16.15;;;9.90;;
48951;SDS011;34758;42.148;24.744;2023-05-15T01:07:02;12.48;;;8.80;;
48951;SDS011;34758;42.148;24.744;2023-05-15T01:09:31;12.63;;;9.48;;
48951;SDS011;34758;42.148;24.744;2023-05-15T01:11:59;12.80;;;9.77;;
48951;SDS011;34758;42.148;24.744;2023-05-15T01:14:26;16.55;;;9.07;;
48951;SDS011;34758;42.148;24.744;2023-05-15T01:16:53;13.43;;;9.60;;
48951;SDS011;34758;42.148;24.744;2023-05-15T01:19:21;9.85;;;8.43;;
48951;SDS011;34758;42.148;24.744;2023-05-15T01:22:07;15.38;;;10.07;;
48951;SDS011;34758;42.148;24.744;2023-05-15T01:25:19;11.70;;;9.05;;
48951;SDS011;34758;42.148;24.744;2023-05-15T01:27:57;14.60;;;9.70;;
48951;SDS011;34758;42.148;24.744;2023-05-15T01:30:27;12.65;;;9.45;;
48951;SDS011;34758;42.148;24.744;2023-05-15T01:32:57;13.43;;;8.90;;
48951;SDS011;34758;42.148;24.744;2023-05-15T01:35:32;11.80;;;9.20;;
48951;SDS011;34758;42.148;24.744;2023-05-15T01:38:04;9.98;;;8.40;;
48951;SDS011;34758;42.148;24.744;2023-05-15T01:40:34;13.15;;;9.05;;
48951;SDS011;34758;42.148;24.744;2023-05-15T01:43:07;14.32;;;9.45;;
48951;SDS011;34758;42.148;24.744;2023-05-15T01:45:34;13.80;;;10.00;;
48951;SDS011;34758;42.148;24.744;2023-05-15T01:48:04;11.00;;;9.90;;
48951;SDS011;34758;42.148;24.744;2023-05-15T01:50:33;10.77;;;9.65;;
48951;SDS011;34758;42.148;24.744;2023-05-15T01:53:01;13.07;;;9.35;;
48951;SDS011;34758;42.148;24.744;2023-05-15T01:55:28;13.93;;;9.07;;
48951;SDS011;34758;42.148;24.744;2023-05-15T01:57:56;13.18;;;9.48;;
48951;SDS011;34758;42.148;24.744;2023-05-15T02:00:27;13.88;;;10.40;;
48951;SDS011;34758;42.148;24.744;2023-05-15T02:02:54;12.85;;;10.10;;
48951;SDS011;34758;42.148;24.744;2023-05-15T02:05:22;11.35;;;9.82;;
48951;SDS011;34758;42.148;24.744;2023-05-15T02:07:50;11.23;;;10.02;;
48951;SDS011;34758;42.148;24.744;2023-05-15T02:10:17;13.88;;;9.60;;
48951;SDS011;34758;42.148;24.744;2023-05-15T02:12:45;12.40;;;9.27;;
48951;SDS011;34758;42.148;24.744;2023-05-15T02:15:11;10.85;;;9.43;;
48951;SDS011;34758;42.148;24.744;2023-05-15T02:17:40;9.73;;;8.55;;
48951;SDS011;34758;42.148;24.744;2023-05-15T02:20:08;13.63;;;9.70;;
48951;SDS011;34758;42.148;24.744;2023-05-15T02:22:35;10.77;;;8.98;;
48951;SDS011;34758;42.148;24.744;2023-05-15T02:25:03;10.90;;;9.60;;
48951;SDS011;34758;42.148;24.744;2023-05-15T02:27:34;15.43;;;9.90;;
48951;SDS011;34758;42.148;24.744;2023-05-15T02:30:11;12.55;;;9.30;;
48951;SDS011;34758;42.148;24.744;2023-05-15T02:32:50;14.43;;;9.97;;
48951;SDS011;34758;42.148;24.744;2023-05-15T02:35:24;14.70;;;10.18;;
48951;SDS011;34758;42.148;24.744;2023-05-15T02:37:55;11.60;;;9.65;;
48951;SDS011;34758;42.148;24.744;2023-05-15T02:40:27;15.63;;;9.98;;
48951;SDS011;34758;42.148;24.744;2023-05-15T02:42:54;13.32;;;10.43;;
48951;SDS011;34758;42.148;24.744;2023-05-15T02:45:22;10.10;;;8.98;;
48951;SDS011;34758;42.148;24.744;2023-05-15T02:47:51;12.88;;;9.65;;
48951;SDS011;34758;42.148;24.744;2023-05-15T02:50:18;13.40;;;10.27;;
48951;SDS011;34758;42.148;24.744;2023-05-15T02:52:45;13.90;;;9.18;;
48951;SDS011;34758;42.148;24.744;2023-05-15T02:55:12;10.88;;;9.48;;
48951;SDS011;34758;42.148;24.744;2023-05-15T02:57:39;11.23;;;9.50;;
48951;SDS011;34758;42.148;24.744;2023-05-15T03:00:07;13.38;;;10.23;;
48951;SDS011;34758;42.148;24.744;2023-05-15T03:02:36;13.02;;;9.93;;
48951;SDS011;34758;42.148;24.744;2023-05-15T03:05:06;12.43;;;9.85;;
48951;SDS011;34758;42.148;24.744;2023-05-15T03:07:34;12.25;;;9.50;;
48951;SDS011;34758;42.148;24.744;2023-05-15T03:10:05;13.82;;;9.50;;
48951;SDS011;34758;42.148;24.744;2023-05-15T03:12:33;10.43;;;9.00;;
48951;SDS011;34758;42.148;24.744;2023-05-15T03:15:00;13.48;;;8.95;;
48951;SDS011;34758;42.148;24.744;2023-05-15T03:17:27;11.88;;;9.05;;
48951;SDS011;34758;42.148;24.744;2023-05-15T03:19:55;13.30;;;10.38;;
48951;SDS011;34758;42.148;24.744;2023-05-15T03:22:23;18.67;;;9.98;;
48951;SDS011;34758;42.148;24.744;2023-05-15T03:24:50;14.27;;;10.00;;
48951;SDS011;34758;42.148;24.744;2023-05-15T03:27:17;14.02;;;10.25;;
48951;SDS011;34758;42.148;24.744;2023-05-15T03:29:44;14.27;;;9.32;;
48951;SDS011;34758;42.148;24.744;2023-05-15T03:32:13;14.10;;;9.30;;
48951;SDS011;34758;42.148;24.744;2023-05-15T03:34:41;14.57;;;10.88;;
48951;SDS011;34758;42.148;24.744;2023-05-15T03:37:08;12.90;;;10.10;;
48951;SDS011;34758;42.148;24.744;2023-05-15T03:39:36;11.93;;;10.15;;
48951;SDS011;34758;42.148;24.744;2023-05-15T03:42:04;12.38;;;10.57;;
48951;SDS011;34758;42.148;24.744;2023-05-15T03:44:31;14.35;;;10.43;;
48951;SDS011;34758;42.148;24.744;2023-05-15T03:46:59;13.80;;;10.55;;
48951;SDS011;34758;42.148;24.744;2023-05-15T03:49:26;12.27;;;10.40;;
48951;SDS011;34758;42.148;24.744;2023-05-15T03:51:53;17.50;;;11.10;;
48951;SDS011;34758;42.148;24.744;2023-05-15T03:54:20;12.55;;;9.73;;
48951;SDS011;34758;42.148;24.744;2023-05-15T03:56:49;13.30;;;10.18;;
48951;SDS011;34758;42.148;24.744;2023-05-15T03:59:16;12.80;;;11.05;;
48951;SDS011;34758;42.148;24.744;2023-05-15T04:01:43;13.13;;;11.38;;
48951;SDS011;34758;42.148;24.744;2023-05-15T04:04:11;12.23;;;10.52;;
48951;SDS011;34758;42.148;24.744;2023-05-15T04:06:39;13.88;;;10.50;;
48951;SDS011;34758;42.148;24.744;2023-05-15T04:09:07;13.80;;;10.07;;
48951;SDS011;34758;42.148;24.744;2023-05-15T04:11:34;18.42;;;11.27;;
48951;SDS011;34758;42.148;24.744;2023-05-15T04:14:03;12.85;;;9.07;;
48951;SDS011;34758;42.148;24.744;2023-05-15T04:16:31;10.70;;;9.60;;
48951;SDS011;34758;42.148;24.744;2023-05-15T04:18:58;15.23;;;10.77;;
48951;SDS011;34758;42.148;24.744;2023-05-15T04:21:26;15.63;;;11.27;;
48951;SDS011;34758;42.148;24.744;2023-05-15T04:23:53;16.00;;;11.45;;
48951;SDS011;34758;42.148;24.744;2023-05-15T04:26:19;15.23;;;10.15;;
48951;SDS011;34758;42.148;24.744;2023-05-15T04:28:47;12.50;;;10.48;;
48951;SDS011;34758;42.148;24.744;2023-05-15T04:31:15;12.00;;;10.38;;
48951;SDS011;34758;42.148;24.744;2023-05-15T04:33:42;14.68;;;11.10;;
48951;SDS011;34758;42.148;24.744;2023-05-15T04:36:09;14.82;;;11.18;;
48951;SDS011;34758;42.148;24.744;2023-05-15T04:38:37;15.65;;;11.70;;
48951;SDS011;34758;42.148;24.744;2023-05-15T04:41:04;14.50;;;11.75;;
48951;SDS011;34758;42.148;24.744;2023-05-15T04:43:31;14.68;;;11.85;;
48951;SDS011;34758;42.148;24.744;2023-05-15T04:45:58;17.38;;;12.25;;
48951;SDS011;34758;42.148;24.744;2023-05-15T04:48:28;15.00;;;11.75;;
48951;SDS011;34758;42.148;24.744;2023-05-15T04:50:55;15.63;;;12.25;;
48951;SDS011;34758;42.148;24.744;2023-05-15T04:53:22;15.60;;;11.98;;
48951;SDS011;34758;42.148;24.744;2023-05-15T04:55:49;17.13;;;11.70;;
48951;SDS011;34758;42.148;24.744;2023-05-15T04:58:16;16.25;;;11.10;;
48951;SDS011;34758;42.148;24.744;2023-05-15T05:00:43;16.38;;;12.05;;
48951;SDS011;34758;42.148;24.744;2023-05-15T05:03:14;16.17;;;12.38;;
48951;SDS011;34758;42.148;24.744;2023-05-15T05:05:43;12.73;;;11.00;;
48951;SDS011;34758;42.148;24.744;2023-05-15T05:08:10;16.52;;;11.18;;
48951;SDS011;34758;42.148;24.744;2023-05-15T05:10:37;19.05;;;12.57;;
48951;SDS011;34758;42.148;24.744;2023-05-15T05:13:04;14.60;;;11.18;;
48951;SDS011;34758;42.148;24.744;2023-05-15T05:15:31;17.73;;;12.18;;
48951;SDS011;34758;42.148;24.744;2023-05-15T05:17:58;16.65;;;12.27;;
48951;SDS011;34758;42.148;24.744;2023-05-15T05:20:25;16.05;;;12.65;;
48951;SDS011;34758;42.148;24.744;2023-05-15T05:22:54;19.73;;;13.73;;
48951;SDS011;34758;42.148;24.744;2023-05-15T05:25:20;16.30;;;12.85;;
48951;SDS011;34758;42.148;24.744;2023-05-15T05:27:47;18.23;;;14.18;;
48951;SDS011;34758;42.148;24.744;2023-05-15T05:30:15;18.38;;;13.55;;
48951;SDS011;34758;42.148;24.744;2023-05-15T05:32:42;18.33;;;13.45;;
48951;SDS011;34758;42.148;24.744;2023-05-15T05:35:10;20.48;;;13.60;;
48951;SDS011;34758;42.148;24.744;2023-05-15T05:37:36;19.08;;;13.95;;
48951;SDS011;34758;42.148;24.744;2023-05-15T05:40:06;18.08;;;13.80;;
48951;SDS011;34758;42.148;24.744;2023-05-15T05:42:34;18.75;;;15.48;;
48951;SDS011;34758;42.148;24.744;2023-05-15T05:45:01;18.65;;;14.30;;
48951;SDS011;34758;42.148;24.744;2023-05-15T05:47:29;18.65;;;15.20;;
48951;SDS011;34758;42.148;24.744;2023-05-15T05:49:57;18.17;;;15.10;;
48951;SDS011;34758;42.148;24.744;2023-05-15T05:52:25;19.17;;;14.88;;
48951;SDS011;34758;42.148;24.744;2023-05-15T05:54:53;18.75;;;15.77;;
48951;SDS011;34758;42.148;24.744;2023-05-15T05:57:21;20.08;;;15.82;;
48951;SDS011;34758;42.148;24.744;2023-05-15T05:59:48;19.83;;;15.90;;
48951;SDS011;34758;42.148;24.744;2023-05-15T06:02:15;19.13;;;15.93;;
48951;SDS011;34758;42.148;24.744;2023-05-15T06:04:45;18.63;;;15.55;;
48951;SDS011;34758;42.148;24.744;2023-05-15T06:07:13;20.45;;;15.13;;
48951;SDS011;34758;42.148;24.744;2023-05-15T06:09:40;17.55;;;15.65;;
48951;SDS011;34758;42.148;24.744;2023-05-15T06:12:07;18.92;;;15.52;;
48951;SDS011;34758;42.148;24.744;2023-05-15T06:14:36;20.58;;;14.45;;
48951;SDS011;34758;42.148;24.744;2023-05-15T06:17:03;21.50;;;14.88;;
48951;SDS011;34758;42.148;24.744;2023-05-15T06:19:30;19.65;;;15.35;;
48951;SDS011;34758;42.148;24.744;2023-05-15T06:21:57;19.13;;;14.75;;
48951;SDS011;34758;42.148;24.744;2023-05-15T06:24:25;20.42;;;14.93;;
48951;SDS011;34758;42.148;24.744;2023-05-15T06:26:53;20.30;;;15.60;;
48951;SDS011;34758;42.148;24.744;2023-05-15T06:29:20;17.67;;;14.63;;
48951;SDS011;34758;42.148;24.744;2023-05-15T06:31:48;19.38;;;15.35;;
48951;SDS011;34758;42.148;24.744;2023-05-15T06:34:16;22.67;;;16.60;;
48951;SDS011;34758;42.148;24.744;2023-05-15T06:36:44;19.55;;;15.35;;
48951;SDS011;34758;42.148;24.744;2023-05-15T06:39:12;18.55;;;15.75;;
48951;SDS011;34758;42.148;24.744;2023-05-15T06:41:39;19.05;;;15.30;;
48951;SDS011;34758;42.148;24.744;2023-05-15T06:44:07;16.73;;;14.63;;
48951;SDS011;34758;42.148;24.744;2023-05-15T06:46:34;18.00;;;15.38;;
48951;SDS011;34758;42.148;24.744;2023-05-15T06:49:02;21.20;;;14.40;;
48951;SDS011;34758;42.148;24.744;2023-05-15T06:51:31;21.73;;;14.52;;
48951;SDS011;34758;42.148;24.744;2023-05-15T06:53:58;17.17;;;14.07;;
48951;SDS011;34758;42.148;24.744;2023-05-15T06:56:25;18.92;;;13.63;;
48951;SDS011;34758;42.148;24.744;2023-05-15T06:58:52;15.20;;;12.05;;
48951;SDS011;34758;42.148;24.744;2023-05-15T07:01:19;16.92;;;12.52;;
48951;SDS011;34758;42.148;24.744;2023-05-15T07:03:46;15.45;;;11.05;;
48951;SDS011;34758;42.148;24.744;2023-05-15T07:06:15;12.35;;;9.95;;
48951;SDS011;34758;42.148;24.744;2023-05-15T07:08:42;11.70;;;8.88;;
48951;SDS011;34758;42.148;24.744;2023-05-15T07:11:09;14.68;;;9.50;;
48951;SDS011;34758;42.148;24.744;2023-05-15T07:13:36;11.77;;;9.43;;
48951;SDS011;34758;42.148;24.744;2023-05-15T07:16:04;12.43;;;9.55;;
48951;SDS011;34758;42.148;24.744;2023-05-15T07:18:31;14.02;;;10.05;;
48951;SDS011;34758;42.148;24.744;2023-05-15T07:20:58;14.93;;;9.68;;
48951;SDS011;34758;42.148;24.744;2023-05-15T07:23:30;11.18;;;8.45;;
48951;SDS011;34758;42.148;24.744;2023-05-15T07:25:58;12.90;;;9.18;;
48951;SDS011;34758;42.148;24.744;2023-05-15T07:28:25;14.52;;;9.00;;
48951;SDS011;34758;42.148;24.744;2023-05-15T07:30:52;12.73;;;8.10;;
48951;SDS011;34758;42.148;24.744;2023-05-15T07:33:20;9.93;;;7.95;;
48951;SDS011;34758;42.148;24.744;2023-05-15T07:35:47;10.77;;;8.55;;
48951;SDS011;34758;42.148;24.744;2023-05-15T07:38:14;10.15;;;7.68;;
48951;SDS011;34758;42.148;24.744;2023-05-15T07:40:43;11.02;;;7.55;;
48951;SDS011;34758;42.148;24.744;2023-05-15T07:43:10;13.95;;;8.48;;
48951;SDS011;34758;42.148;24.744;2023-05-15T07:45:37;14.18;;;8.18;;
48951;SDS011;34758;42.148;24.744;2023-05-15T07:48:14;8.98;;;7.07;;
48951;SDS011;34758;42.148;24.744;2023-05-15T07:50:43;11.02;;;8.00;;
48951;SDS011;34758;42.148;24.744;2023-05-15T07:53:10;8.95;;;7.85;;
48951;SDS011;34758;42.148;24.744;2023-05-15T07:55:42;14.27;;;9.25;;
48951;SDS011;34758;42.148;24.744;2023-05-15T07:58:09;11.15;;;7.38;;
48951;SDS011;34758;42.148;24.744;2023-05-15T08:00:36;9.90;;;6.90;;
48951;SDS011;34758;42.148;24.744;2023-05-15T08:03:03;9.23;;;7.40;;
48951;SDS011;34758;42.148;24.744;2023-05-15T08:05:31;8.27;;;7.35;;
48951;SDS011;34758;42.148;24.744;2023-05-15T08:07:58;12.80;;;7.68;;
48951;SDS011;34758;42.148;24.744;2023-05-15T08:10:26;13.80;;;7.82;;
48951;SDS011;34758;42.148;24.744;2023-05-15T08:12:54;14.18;;;8.68;;
48951;SDS011;34758;42.148;24.744;2023-05-15T08:15:21;9.35;;;8.45;;
48951;SDS011;34758;42.148;24.744;2023-05-15T08:17:48;10.25;;;8.30;;
48951;SDS011;34758;42.148;24.744;2023-05-15T08:20:15;11.48;;;8.02;;
48951;SDS011;34758;42.148;24.744;2023-05-15T08:22:43;10.80;;;9.18;;
48951;SDS011;34758;42.148;24.744;2023-05-15T08:25:10;12.18;;;8.75;;
48951;SDS011;34758;42.148;24.744;2023-05-15T08:27:37;10.52;;;8.70;;
48951;SDS011;34758;42.148;24.744;2023-05-15T08:30:07;12.00;;;9.68;;
48951;SDS011;34758;42.148;24.744;2023-05-15T08:32:36;10.85;;;9.18;;
48951;SDS011;34758;42.148;24.744;2023-05-15T08:35:03;8.80;;;7.88;;
48951;SDS011;34758;42.148;24.744;2023-05-15T08:37:31;9.90;;;8.57;;
48951;SDS011;34758;42.148;24.744;2023-05-15T08:39:59;13.02;;;8.77;;
48951;SDS011;34758;42.148;24.744;2023-05-15T08:42:27;9.30;;;8.35;;
48951;SDS011;34758;42.148;24.744;2023-05-15T08:44:59;9.48;;;8.45;;
48951;SDS011;34758;42.148;24.744;2023-05-15T08:47:28;10.63;;;8.38;;
48951;SDS011;34758;42.148;24.744;2023-05-15T08:49:57;12.48;;;8.48;;
48951;SDS011;34758;42.148;24.744;2023-05-15T08:52:26;12.55;;;8.65;;
48951;SDS011;34758;42.148;24.744;2023-05-15T08:54:54;10.00;;;8.10;;
48951;SDS011;34758;42.148;24.744;2023-05-15T08:57:21;13.82;;;8.70;;
48951;SDS011;34758;42.148;24.744;2023-05-15T08:59:48;10.38;;;9.25;;
48951;SDS011;34758;42.148;24.744;2023-05-15T09:02:18;12.30;;;9.68;;
48951;SDS011;34758;42.148;24.744;2023-05-15T09:04:47;11.32;;;8.57;;
48951;SDS011;34758;42.148;24.744;2023-05-15T09:07:16;12.50;;;8.82;;
48951;SDS011;34758;42.148;24.744;2023-05-15T09:09:43;9.60;;;8.52;;
48951;SDS011;34758;42.148;24.744;2023-05-15T09:12:13;11.90;;;8.32;;
48951;SDS011;34758;42.148;24.744;2023-05-15T09:14:40;11.35;;;8.48;;
48951;SDS011;34758;42.148;24.744;2023-05-15T09:17:09;9.07;;;7.82;;
48951;SDS011;34758;42.148;24.744;2023-05-15T09:19:37;10.27;;;7.88;;
48951;SDS011;34758;42.148;24.744;2023-05-15T09:22:15;12.18;;;8.30;;
48951;SDS011;34758;42.148;24.744;2023-05-15T09:24:47;10.00;;;8.15;;
48951;SDS011;34758;42.148;24.744;2023-05-15T09:27:17;9.88;;;7.72;;
48951;SDS011;34758;42.148;24.744;2023-05-15T09:29:46;8.75;;;7.82;;
48951;SDS011;34758;42.148;24.744;2023-05-15T09:32:16;9.55;;;8.55;;
48951;SDS011;34758;42.148;24.744;2023-05-15T09:34:43;11.80;;;8.60;;
48951;SDS011;34758;42.148;24.744;2023-05-15T09:37:27;13.77;;;9.57;;
48951;SDS011;34758;42.148;24.744;2023-05-15T09:39:59;11.52;;;8.02;;
48951;SDS011;34758;42.148;24.744;2023-05-15T09:42:35;11.05;;;8.57;;
48951;SDS011;34758;42.148;24.744;2023-05-15T09:45:03;12.02;;;8.25;;
48951;SDS011;34758;42.148;24.744;2023-05-15T09:47:30;10.10;;;8.23;;
48951;SDS011;34758;42.148;24.744;2023-05-15T09:49:58;11.48;;;9.50;;
48951;SDS011;34758;42.148;24.744;2023-05-15T09:52:29;13.15;;;10.05;;
48951;SDS011;34758;42.148;24.744;2023-05-15T09:54:57;15.77;;;11.45;;
48951;SDS011;34758;42.148;24.744;2023-05-15T09:57:24;15.40;;;10.80;;
48951;SDS011;34758;42.148;24.744;2023-05-15T09:59:51;16.48;;;12.00;;
48951;SDS011;34758;42.148;24.744;2023-05-15T10:02:22;13.57;;;11.13;;
48951;SDS011;34758;42.148;24.744;2023-05-15T10:04:55;13.13;;;11.38;;
48951;SDS011;34758;42.148;24.744;2023-05-15T10:07:26;14.73;;;11.20;;
48951;SDS011;34758;42.148;24.744;2023-05-15T10:09:54;14.47;;;11.20;;
48951;SDS011;34758;42.148;24.744;2023-05-15T10:12:22;17.38;;;12.02;;
48951;SDS011;34758;42.148;24.744;2023-05-15T10:14:52;14.20;;;11.10;;
48951;SDS011;34758;42.148;24.744;2023-05-15T10:17:19;17.35;;;11.48;;
48951;SDS011;34758;42.148;24.744;2023-05-15T10:19:46;15.30;;;11.15;;
48951;SDS011;34758;42.148;24.744;2023-05-15T10:22:14;18.27;;;12.70;;
48951;SDS011;34758;42.148;24.744;2023-05-15T10:24:44;12.98;;;11.52;;
48951;SDS011;34758;42.148;24.744;2023-05-15T10:27:14;16.08;;;11.90;;
48951;SDS011;34758;42.148;24.744;2023-05-15T10:29:42;16.83;;;11.77;;
48951;SDS011;34758;42.148;24.744;2023-05-15T10:32:09;18.67;;;12.13;;
48951;SDS011;34758;42.148;24.744;2023-05-15T10:34:37;12.52;;;11.25;;
48951;SDS011;34758;42.148;24.744;2023-05-15T10:37:04;15.20;;;12.27;;
48951;SDS011;34758;42.148;24.744;2023-05-15T10:39:32;15.82;;;12.30;;
48951;SDS011;34758;42.148;24.744;2023-05-15T10:42:01;17.80;;;13.00;;
48951;SDS011;34758;42.148;24.744;2023-05-15T10:44:29;20.88;;;12.80;;
48951;SDS011;34758;42.148;24.744;2023-05-15T10:46:56;17.60;;;12.65;;
48951;SDS011;34758;42.148;24.744;2023-05-15T10:49:23;17.60;;;13.30;;
48951;SDS011;34758;42.148;24.744;2023-05-15T10:51:51;15.57;;;12.57;;
48951;SDS011;34758;42.148;24.744;2023-05-15T10:54:18;17.65;;;12.73;;
48951;SDS011;34758;42.148;24.744;2023-05-15T10:56:47;13.25;;;11.75;;
48951;SDS011;34758;42.148;24.744;2023-05-15T10:59:14;15.07;;;12.93;;
48951;SDS011;34758;42.148;24.744;2023-05-15T11:01:42;15.13;;;13.00;;
48951;SDS011;34758;42.148;24.744;2023-05-15T11:04:10;15.90;;;12.38;;
48951;SDS011;34758;42.148;24.744;2023-05-15T11:06:38;21.38;;;11.85;;
48951;SDS011;34758;42.148;24.744;2023-05-15T11:12:00;13.27;;;11.80;;
48951;SDS011;34758;42.148;24.744;2023-05-15T11:14:28;12.65;;;10.55;;
48951;SDS011;34758;42.148;24.744;2023-05-15T11:17:02;15.57;;;12.00;;
48951;SDS011;34758;42.148;24.744;2023-05-15T11:19:31;16.40;;;12.20;;
48951;SDS011;34758;42.148;24.744;2023-05-15T11:22:00;15.32;;;11.18;;
48951;SDS011;34758;42.148;24.744;2023-05-15T11:24:28;14.82;;;12.13;;
48951;SDS011;34758;42.148;24.744;2023-05-15T11:26:59;13.40;;;10.70;;
48951;SDS011;34758;42.148;24.744;2023-05-15T11:29:27;15.70;;;10.85;;
48951;SDS011;34758;42.148;24.744;2023-05-15T11:31:54;15.50;;;11.82;;
48951;SDS011;34758;42.148;24.744;2023-05-15T11:34:29;15.15;;;11.70;;
48951;SDS011;34758;42.148;24.744;2023-05-15T11:36:57;15.77;;;11.23;;
48951;SDS011;34758;42.148;24.744;2023-05-15T11:39:25;13.73;;;10.98;;
48951;SDS011;34758;42.148;24.744;2023-05-15T11:41:52;19.52;;;11.98;;
48951;SDS011;34758;42.148;24.744;2023-05-15T11:44:21;15.70;;;11.40;;
48951;SDS011;34758;42.148;24.744;2023-05-15T11:46:49;15.85;;;12.90;;
48951;SDS011;34758;42.148;24.744;2023-05-15T11:49:17;18.40;;;13.05;;
48951;SDS011;34758;42.148;24.744;2023-05-15T11:51:48;17.65;;;12.50;;
48951;SDS011;34758;42.148;24.744;2023-05-15T11:54:16;15.25;;;12.18;;
48951;SDS011;34758;42.148;24.744;2023-05-15T11:56:44;17.88;;;14.75;;
48951;SDS011;34758;42.148;24.744;2023-05-15T11:59:11;15.70;;;13.02;;
48951;SDS011;34758;42.148;24.744;2023-05-15T12:01:39;18.08;;;12.90;;
48951;SDS011;34758;42.148;24.744;2023-05-15T12:04:13;15.43;;;13.45;;
48951;SDS011;34758;42.148;24.744;2023-05-15T12:06:40;17.48;;;13.88;;
48951;SDS011;34758;42.148;24.744;2023-05-15T12:09:14;17.27;;;14.32;;
48951;SDS011;34758;42.148;24.744;2023-05-15T12:11:47;16.92;;;14.00;;
48951;SDS011;34758;42.148;24.744;2023-05-15T12:14:16;19.73;;;13.65;;
48951;SDS011;34758;42.148;24.744;2023-05-15T12:16:44;18.20;;;14.25;;
48951;SDS011;34758;42.148;24.744;2023-05-15T12:19:12;18.85;;;14.70;;
48951;SDS011;34758;42.148;24.744;2023-05-15T12:21:44;20.75;;;14.25;;
48951;SDS011;34758;42.148;24.744;2023-05-15T12:24:16;17.55;;;14.27;;
48951;SDS011;34758;42.148;24.744;2023-05-15T12:26:45;17.90;;;14.68;;
48951;SDS011;34758;42.148;24.744;2023-05-15T12:29:13;19.23;;;14.63;;
48951;SDS011;34758;42.148;24.744;2023-05-15T12:31:40;23.48;;;15.40;;
48951;SDS011;34758;42.148;24.744;2023-05-15T12:34:07;19.15;;;13.57;;
48951;SDS011;34758;42.148;24.744;2023-05-15T12:36:35;19.23;;;14.00;;
48951;SDS011;34758;42.148;24.744;2023-05-15T12:39:04;18.73;;;15.13;;
48951;SDS011;34758;42.148;24.744;2023-05-15T12:41:33;17.48;;;14.52;;
48951;SDS011;34758;42.148;24.744;2023-05-15T12:44:02;18.90;;;14.90;;
48951;SDS011;34758;42.148;24.744;2023-05-15T12:46:31;20.35;;;14.43;;
48951;SDS011;34758;42.148;24.744;2023-05-15T12:48:59;17.10;;;14.73;;
48951;SDS011;34758;42.148;24.744;2023-05-15T12:51:26;19.13;;;15.73;;
48951;SDS011;34758;42.148;24.744;2023-05-15T12:53:54;17.88;;;14.93;;
48951;SDS011;34758;42.148;24.744;2023-05-15T12:56:24;19.48;;;14.63;;
48951;SDS011;34758;42.148;24.744;2023-05-15T12:58:54;20.60;;;15.05;;
48951;SDS011;34758;42.148;24.744;2023-05-15T13:01:21;18.55;;;14.95;;
48951;SDS011;34758;42.148;24.744;2023-05-15T13:03:48;20.30;;;14.30;;
48951;SDS011;34758;42.148;24.744;2023-05-15T13:06:15;19.83;;;15.52;;
48951;SDS011;34758;42.148;24.744;2023-05-15T13:08:42;19.25;;;14.85;;
48951;SDS011;34758;42.148;24.744;2023-05-15T13:11:10;15.73;;;13.75;;
48951;SDS011;34758;42.148;24.744;2023-05-15T13:13:40;19.48;;;14.43;;
48951;SDS011;34758;42.148;24.744;2023-05-15T13:16:17;18.60;;;14.65;;
48951;SDS011;34758;42.148;24.744;2023-05-15T13:18:45;18.27;;;14.60;;
48951;SDS011;34758;42.148;24.744;2023-05-15T13:21:12;18.88;;;14.95;;
48951;SDS011;34758;42.148;24.744;2023-05-15T13:23:39;22.17;;;14.82;;
48951;SDS011;34758;42.148;24.744;2023-05-15T13:26:06;19.13;;;14.23;;
48951;SDS011;34758;42.148;24.744;2023-05-15T13:28:33;17.50;;;14.68;;
48951;SDS011;34758;42.148;24.744;2023-05-15T13:31:03;25.48;;;14.88;;
48951;SDS011;34758;42.148;24.744;2023-05-15T13:33:32;17.15;;;14.45;;
48951;SDS011;34758;42.148;24.744;2023-05-15T13:36:00;19.33;;;14.95;;
48951;SDS011;34758;42.148;24.744;2023-05-15T13:38:27;17.40;;;14.57;;
48951;SDS011;34758;42.148;24.744;2023-05-15T13:40:55;18.13;;;15.00;;
48951;SDS011;34758;42.148;24.744;2023-05-15T13:43:23;17.70;;;15.05;;
48951;SDS011;34758;42.148;24.744;2023-05-15T13:45:50;19.67;;;15.85;;
48951;SDS011;34758;42.148;24.744;2023-05-15T13:48:17;19.65;;;14.65;;
48951;SDS011;34758;42.148;24.744;2023-05-15T13:50:45;23.17;;;15.57;;
48951;SDS011;34758;42.148;24.744;2023-05-15T13:53:13;19.95;;;14.95;;
48951;SDS011;34758;42.148;24.744;2023-05-15T13:55:46;18.85;;;15.70;;
48951;SDS011;34758;42.148;24.744;2023-05-15T13:58:13;18.33;;;15.43;;
48951;SDS011;34758;42.148;24.744;2023-05-15T14:00:40;21.58;;;15.68;;
48951;SDS011;34758;42.148;24.744;2023-05-15T14:03:08;17.67;;;14.40;;
48951;SDS011;34758;42.148;24.744;2023-05-15T14:05:35;18.80;;;14.70;;
48951;SDS011;34758;42.148;24.744;2023-05-15T14:08:04;18.52;;;15.32;;
48951;SDS011;34758;42.148;24.744;2023-05-15T14:10:32;19.13;;;13.93;;
48951;SDS011;34758;42.148;24.744;2023-05-15T14:12:59;20.23;;;14.57;;
48951;SDS011;34758;42.148;24.744;2023-05-15T14:15:26;18.15;;;14.93;;
48951;SDS011;34758;42.148;24.744;2023-05-15T14:17:53;15.50;;;13.68;;
48951;SDS011;34758;42.148;24.744;2023-05-15T14:20:21;21.08;;;14.90;;
48951;SDS011;34758;42.148;24.744;2023-05-15T14:22:49;17.50;;;15.20;;
48951;SDS011;34758;42.148;24.744;2023-05-15T14:25:17;17.52;;;15.35;;